sensor_id;sensor_type;location;lat;lon;timestamp;P1;durP1;ratioP1;P2;durP2;ratioP2
33840;SDS011;20142;28.494;-16.312;2023-05-16T00:03:47;20.20;;;3.33;;
33840;SDS011;20142;28.494;-16.312;2023-05-16T00:08:49;20.67;;;3.45;;
33840;SDS011;20142;28.494;-16.312;2023-05-16T00:13:51;17.65;;;2.83;;
33840;SDS011;20142;28.494;-16.312;2023-05-16T00:18:53;17.05;;;2.20;;
33840;SDS011;20142;28.494;-16.312;2023-05-16T00:23:57;20.73;;;3.25;;
33840;SDS011;20142;28.494;-16.312;2023-05-16T00:28:58;19.00;;;2.97;;
33840;SDS011;20142;28.494;-16.312;2023-05-16T00:34:00;23.13;;;3.45;;
33840;SDS011;20142;28.494;-16.312;2023-05-16T00:39:02;15.30;;;3.28;;
33840;SDS011;20142;28.494;-16.312;2023-05-16T00:44:04;19.30;;;3.42;;
33840;SDS011;20142;28.494;-16.312;2023-05-16T00:49:06;15.48;;;3.25;;
33840;SDS011;20142;28.494;-16.312;2023-05-16T00:54:09;25.30;;;3.75;;
33840;SDS011;20142;28.494;-16.312;2023-05-16T00:59:12;18.10;;;2.72;;
33840;SDS011;20142;28.494;-16.312;2023-05-16T01:04:13;24.63;;;3.95;;
33840;SDS011;20142;28.494;-16.312;2023-05-16T01:09:15;19.67;;;2.78;;
33840;SDS011;20142;28.494;-16.312;2023-05-16T01:19:46;26.92;;;3.47;;
33840;SDS011;20142;28.494;-16.312;2023-05-16T01:30:45;18.48;;;3.25;;
33840;SDS011;20142;28.494;-16.312;2023-05-16T01:36:09;19.05;;;3.58;;
33840;SDS011;20142;28.494;-16.312;2023-05-16T01:47:14;24.15;;;3.40;;
33840;SDS011;20142;28.494;-16.312;2023-05-16T01:57:23;16.15;;;2.67;;
33840;SDS011;20142;28.494;-16.312;2023-05-16T02:02:27;21.63;;;3.10;;
33840;SDS011;20142;28.494;-16.312;2023-05-16T02:07:28;22.70;;;3.30;;
33840;SDS011;20142;28.494;-16.312;2023-05-16T02:12:30;18.77;;;3.10;;
33840;SDS011;20142;28.494;-16.312;2023-05-16T02:17:32;22.42;;;3.42;;
33840;SDS011;20142;28.494;-16.312;2023-05-16T02:22:33;20.23;;;3.08;;
33840;SDS011;20142;28.494;-16.312;2023-05-16T02:27:36;25.17;;;3.20;;
33840;SDS011;20142;28.494;-16.312;2023-05-16T02:32:38;17.35;;;2.85;;
33840;SDS011;20142;28.494;-16.312;2023-05-16T02:37:40;21.98;;;3.03;;
33840;SDS011;20142;28.494;-16.312;2023-05-16T02:42:42;24.63;;;2.90;;
33840;SDS011;20142;28.494;-16.312;2023-05-16T02:47:44;17.42;;;2.58;;
33840;SDS011;20142;28.494;-16.312;2023-05-16T02:52:45;26.17;;;3.58;;
33840;SDS011;20142;28.494;-16.312;2023-05-16T02:57:47;24.50;;;3.30;;
33840;SDS011;20142;28.494;-16.312;2023-05-16T03:02:50;17.75;;;2.95;;
33840;SDS011;20142;28.494;-16.312;2023-05-16T03:07:52;16.23;;;2.70;;
33840;SDS011;20142;28.494;-16.312;2023-05-16T03:12:54;18.75;;;2.72;;
33840;SDS011;20142;28.494;-16.312;2023-05-16T03:17:55;19.13;;;3.03;;
33840;SDS011;20142;28.494;-16.312;2023-05-16T03:22:57;21.10;;;2.53;;
33840;SDS011;20142;28.494;-16.312;2023-05-16T03:27:59;23.10;;;3.05;;
33840;SDS011;20142;28.494;-16.312;2023-05-16T03:33:01;22.85;;;2.83;;
33840;SDS011;20142;28.494;-16.312;2023-05-16T03:38:03;22.98;;;3.00;;
33840;SDS011;20142;28.494;-16.312;2023-05-16T03:43:05;23.85;;;2.60;;
33840;SDS011;20142;28.494;-16.312;2023-05-16T03:48:07;17.05;;;2.65;;
33840;SDS011;20142;28.494;-16.312;2023-05-16T03:53:09;25.65;;;3.35;;
33840;SDS011;20142;28.494;-16.312;2023-05-16T03:58:11;22.55;;;3.20;;
33840;SDS011;20142;28.494;-16.312;2023-05-16T04:03:13;22.20;;;3.47;;
33840;SDS011;20142;28.494;-16.312;2023-05-16T04:08:15;22.08;;;3.33;;
33840;SDS011;20142;28.494;-16.312;2023-05-16T04:13:16;21.23;;;3.25;;
33840;SDS011;20142;28.494;-16.312;2023-05-16T04:18:18;23.38;;;4.13;;
33840;SDS011;20142;28.494;-16.312;2023-05-16T04:23:20;34.47;;;3.90;;
33840;SDS011;20142;28.494;-16.312;2023-05-16T04:28:22;20.63;;;3.65;;
33840;SDS011;20142;28.494;-16.312;2023-05-16T04:33:23;24.50;;;3.60;;
33840;SDS011;20142;28.494;-16.312;2023-05-16T04:38:25;24.08;;;3.60;;
33840;SDS011;20142;28.494;-16.312;2023-05-16T04:43:27;19.15;;;3.13;;
33840;SDS011;20142;28.494;-16.312;2023-05-16T04:48:29;20.90;;;3.60;;
33840;SDS011;20142;28.494;-16.312;2023-05-16T04:53:30;24.30;;;3.78;;
33840;SDS011;20142;28.494;-16.312;2023-05-16T04:58:32;23.48;;;3.40;;
33840;SDS011;20142;28.494;-16.312;2023-05-16T05:03:34;22.95;;;3.10;;
33840;SDS011;20142;28.494;-16.312;2023-05-16T05:08:36;24.80;;;3.58;;
33840;SDS011;20142;28.494;-16.312;2023-05-16T05:13:37;23.08;;;3.25;;
33840;SDS011;20142;28.494;-16.312;2023-05-16T05:18:39;24.25;;;4.03;;
33840;SDS011;20142;28.494;-16.312;2023-05-16T05:23:40;21.48;;;3.38;;
33840;SDS011;20142;28.494;-16.312;2023-05-16T05:28:42;26.73;;;4.03;;
33840;SDS011;20142;28.494;-16.312;2023-05-16T05:33:44;22.90;;;3.90;;
33840;SDS011;20142;28.494;-16.312;2023-05-16T05:38:46;28.38;;;3.88;;
33840;SDS011;20142;28.494;-16.312;2023-05-16T05:43:47;29.20;;;3.75;;
33840;SDS011;20142;28.494;-16.312;2023-05-16T05:48:49;19.30;;;3.42;;
33840;SDS011;20142;28.494;-16.312;2023-05-16T05:53:51;24.25;;;3.28;;
33840;SDS011;20142;28.494;-16.312;2023-05-16T05:58:54;37.38;;;4.28;;
33840;SDS011;20142;28.494;-16.312;2023-05-16T06:03:55;23.25;;;3.70;;
33840;SDS011;20142;28.494;-16.312;2023-05-16T06:08:57;29.67;;;3.33;;
33840;SDS011;20142;28.494;-16.312;2023-05-16T06:13:59;23.45;;;3.58;;
33840;SDS011;20142;28.494;-16.312;2023-05-16T06:19:00;22.63;;;3.05;;
33840;SDS011;20142;28.494;-16.312;2023-05-16T06:24:02;22.45;;;2.88;;
33840;SDS011;20142;28.494;-16.312;2023-05-16T06:29:04;22.38;;;3.17;;
33840;SDS011;20142;28.494;-16.312;2023-05-16T06:34:06;17.83;;;2.83;;
33840;SDS011;20142;28.494;-16.312;2023-05-16T06:39:07;24.38;;;2.90;;
33840;SDS011;20142;28.494;-16.312;2023-05-16T06:44:09;24.17;;;3.00;;
33840;SDS011;20142;28.494;-16.312;2023-05-16T06:49:11;26.25;;;3.35;;
33840;SDS011;20142;28.494;-16.312;2023-05-16T06:54:13;26.33;;;4.03;;
33840;SDS011;20142;28.494;-16.312;2023-05-16T06:59:14;19.75;;;2.35;;
33840;SDS011;20142;28.494;-16.312;2023-05-16T07:04:16;27.45;;;3.53;;
33840;SDS011;20142;28.494;-16.312;2023-05-16T07:09:18;24.58;;;3.17;;
33840;SDS011;20142;28.494;-16.312;2023-05-16T07:14:20;21.70;;;3.45;;
33840;SDS011;20142;28.494;-16.312;2023-05-16T07:19:22;24.92;;;3.60;;
33840;SDS011;20142;28.494;-16.312;2023-05-16T07:24:24;20.30;;;3.05;;
33840;SDS011;20142;28.494;-16.312;2023-05-16T07:29:26;31.27;;;3.60;;
33840;SDS011;20142;28.494;-16.312;2023-05-16T07:34:28;22.73;;;3.97;;
33840;SDS011;20142;28.494;-16.312;2023-05-16T07:39:29;25.80;;;4.03;;
33840;SDS011;20142;28.494;-16.312;2023-05-16T07:44:31;28.95;;;3.60;;
33840;SDS011;20142;28.494;-16.312;2023-05-16T07:49:32;30.77;;;4.15;;
33840;SDS011;20142;28.494;-16.312;2023-05-16T07:54:34;33.75;;;4.63;;
33840;SDS011;20142;28.494;-16.312;2023-05-16T07:59:37;29.27;;;3.95;;
33840;SDS011;20142;28.494;-16.312;2023-05-16T08:04:39;28.77;;;3.67;;
33840;SDS011;20142;28.494;-16.312;2023-05-16T08:09:40;21.35;;;3.53;;
33840;SDS011;20142;28.494;-16.312;2023-05-16T08:14:42;32.42;;;4.22;;
33840;SDS011;20142;28.494;-16.312;2023-05-16T08:19:44;29.80;;;4.25;;
33840;SDS011;20142;28.494;-16.312;2023-05-16T08:24:45;25.05;;;4.10;;
33840;SDS011;20142;28.494;-16.312;2023-05-16T08:29:47;24.63;;;3.47;;
33840;SDS011;20142;28.494;-16.312;2023-05-16T08:34:49;25.73;;;4.05;;
33840;SDS011;20142;28.494;-16.312;2023-05-16T08:39:50;22.90;;;3.55;;
33840;SDS011;20142;28.494;-16.312;2023-05-16T08:44:52;21.02;;;3.20;;
33840;SDS011;20142;28.494;-16.312;2023-05-16T08:49:54;25.20;;;3.78;;
33840;SDS011;20142;28.494;-16.312;2023-05-16T08:55:02;23.48;;;3.47;;
33840;SDS011;20142;28.494;-16.312;2023-05-16T09:00:09;20.83;;;3.40;;
33840;SDS011;20142;28.494;-16.312;2023-05-16T09:05:14;20.27;;;3.58;;
33840;SDS011;20142;28.494;-16.312;2023-05-16T09:10:17;27.27;;;3.40;;
33840;SDS011;20142;28.494;-16.312;2023-05-16T09:15:19;25.27;;;3.67;;
33840;SDS011;20142;28.494;-16.312;2023-05-16T09:20:23;25.42;;;3.80;;
33840;SDS011;20142;28.494;-16.312;2023-05-16T09:25:27;18.42;;;3.20;;
33840;SDS011;20142;28.494;-16.312;2023-05-16T09:30:31;23.40;;;3.20;;
33840;SDS011;20142;28.494;-16.312;2023-05-16T09:35:34;23.55;;;3.70;;
33840;SDS011;20142;28.494;-16.312;2023-05-16T09:40:38;17.02;;;3.45;;
33840;SDS011;20142;28.494;-16.312;2023-05-16T09:45:44;20.10;;;3.28;;
33840;SDS011;20142;28.494;-16.312;2023-05-16T09:50:49;20.67;;;3.75;;
33840;SDS011;20142;28.494;-16.312;2023-05-16T09:56:01;23.77;;;3.55;;
33840;SDS011;20142;28.494;-16.312;2023-05-16T10:01:07;17.40;;;2.25;;
33840;SDS011;20142;28.494;-16.312;2023-05-16T10:06:10;21.15;;;3.28;;
33840;SDS011;20142;28.494;-16.312;2023-05-16T10:11:13;13.73;;;2.83;;
33840;SDS011;20142;28.494;-16.312;2023-05-16T10:16:16;15.45;;;2.72;;
33840;SDS011;20142;28.494;-16.312;2023-05-16T10:21:23;23.08;;;2.78;;
33840;SDS011;20142;28.494;-16.312;2023-05-16T10:26:29;20.85;;;2.83;;
33840;SDS011;20142;28.494;-16.312;2023-05-16T10:31:32;13.38;;;2.60;;
33840;SDS011;20142;28.494;-16.312;2023-05-16T10:36:35;21.73;;;2.65;;
33840;SDS011;20142;28.494;-16.312;2023-05-16T10:41:37;20.33;;;2.67;;
33840;SDS011;20142;28.494;-16.312;2023-05-16T10:46:39;12.98;;;2.25;;
33840;SDS011;20142;28.494;-16.312;2023-05-16T10:51:40;19.67;;;2.80;;
33840;SDS011;20142;28.494;-16.312;2023-05-16T10:56:42;19.63;;;3.17;;
33840;SDS011;20142;28.494;-16.312;2023-05-16T11:01:44;13.50;;;2.03;;
33840;SDS011;20142;28.494;-16.312;2023-05-16T11:06:53;16.13;;;2.60;;
33840;SDS011;20142;28.494;-16.312;2023-05-16T11:11:59;16.52;;;2.22;;
33840;SDS011;20142;28.494;-16.312;2023-05-16T11:27:26;13.35;;;2.28;;
33840;SDS011;20142;28.494;-16.312;2023-05-16T11:32:35;14.35;;;2.45;;
33840;SDS011;20142;28.494;-16.312;2023-05-16T11:37:38;13.07;;;2.20;;
33840;SDS011;20142;28.494;-16.312;2023-05-16T11:42:41;11.23;;;1.98;;
33840;SDS011;20142;28.494;-16.312;2023-05-16T11:47:46;16.00;;;2.40;;
33840;SDS011;20142;28.494;-16.312;2023-05-16T11:52:49;13.50;;;1.98;;
33840;SDS011;20142;28.494;-16.312;2023-05-16T11:57:57;13.25;;;2.40;;
33840;SDS011;20142;28.494;-16.312;2023-05-16T12:03:00;9.60;;;2.28;;
33840;SDS011;20142;28.494;-16.312;2023-05-16T12:08:04;15.60;;;2.65;;
33840;SDS011;20142;28.494;-16.312;2023-05-16T12:13:06;12.48;;;2.20;;
33840;SDS011;20142;28.494;-16.312;2023-05-16T12:18:08;10.65;;;2.03;;
33840;SDS011;20142;28.494;-16.312;2023-05-16T12:23:11;9.15;;;1.98;;
33840;SDS011;20142;28.494;-16.312;2023-05-16T12:28:14;8.30;;;2.10;;
33840;SDS011;20142;28.494;-16.312;2023-05-16T12:33:16;13.05;;;2.45;;
33840;SDS011;20142;28.494;-16.312;2023-05-16T12:38:18;11.82;;;2.22;;
33840;SDS011;20142;28.494;-16.312;2023-05-16T12:43:20;12.15;;;2.35;;
33840;SDS011;20142;28.494;-16.312;2023-05-16T12:48:23;16.23;;;2.33;;
33840;SDS011;20142;28.494;-16.312;2023-05-16T12:53:40;15.60;;;2.08;;
33840;SDS011;20142;28.494;-16.312;2023-05-16T12:58:44;13.40;;;2.10;;
33840;SDS011;20142;28.494;-16.312;2023-05-16T13:03:51;11.70;;;2.05;;
33840;SDS011;20142;28.494;-16.312;2023-05-16T13:08:53;15.60;;;1.77;;
33840;SDS011;20142;28.494;-16.312;2023-05-16T13:13:55;14.23;;;2.83;;
33840;SDS011;20142;28.494;-16.312;2023-05-16T13:18:57;13.52;;;2.70;;
33840;SDS011;20142;28.494;-16.312;2023-05-16T13:23:59;17.73;;;2.88;;
33840;SDS011;20142;28.494;-16.312;2023-05-16T13:29:00;16.23;;;2.80;;
33840;SDS011;20142;28.494;-16.312;2023-05-16T13:34:02;14.80;;;2.70;;
33840;SDS011;20142;28.494;-16.312;2023-05-16T13:39:04;10.90;;;2.38;;
33840;SDS011;20142;28.494;-16.312;2023-05-16T13:44:05;15.10;;;3.22;;
33840;SDS011;20142;28.494;-16.312;2023-05-16T13:49:07;13.18;;;3.00;;
33840;SDS011;20142;28.494;-16.312;2023-05-16T13:54:09;13.65;;;3.22;;
33840;SDS011;20142;28.494;-16.312;2023-05-16T13:59:11;14.80;;;2.90;;
33840;SDS011;20142;28.494;-16.312;2023-05-16T14:04:12;11.23;;;2.53;;
33840;SDS011;20142;28.494;-16.312;2023-05-16T14:09:14;19.30;;;3.58;;
33840;SDS011;20142;28.494;-16.312;2023-05-16T14:14:16;20.98;;;3.75;;
33840;SDS011;20142;28.494;-16.312;2023-05-16T14:19:18;20.42;;;3.72;;
33840;SDS011;20142;28.494;-16.312;2023-05-16T14:24:20;16.58;;;2.90;;
33840;SDS011;20142;28.494;-16.312;2023-05-16T14:29:22;17.23;;;3.65;;
33840;SDS011;20142;28.494;-16.312;2023-05-16T14:34:24;13.07;;;2.97;;
33840;SDS011;20142;28.494;-16.312;2023-05-16T14:39:26;15.13;;;2.97;;
33840;SDS011;20142;28.494;-16.312;2023-05-16T14:44:28;16.98;;;3.22;;
33840;SDS011;20142;28.494;-16.312;2023-05-16T14:49:29;15.15;;;2.83;;
33840;SDS011;20142;28.494;-16.312;2023-05-16T14:54:31;15.88;;;2.88;;
33840;SDS011;20142;28.494;-16.312;2023-05-16T14:59:33;13.65;;;2.83;;
33840;SDS011;20142;28.494;-16.312;2023-05-16T15:04:35;17.10;;;2.70;;
33840;SDS011;20142;28.494;-16.312;2023-05-16T15:09:36;18.52;;;3.25;;
33840;SDS011;20142;28.494;-16.312;2023-05-16T15:14:38;16.50;;;2.80;;
33840;SDS011;20142;28.494;-16.312;2023-05-16T15:19:40;14.35;;;3.20;;
33840;SDS011;20142;28.494;-16.312;2023-05-16T15:24:42;13.88;;;3.28;;
33840;SDS011;20142;28.494;-16.312;2023-05-16T15:29:43;15.18;;;2.42;;
33840;SDS011;20142;28.494;-16.312;2023-05-16T15:34:45;15.18;;;2.75;;
33840;SDS011;20142;28.494;-16.312;2023-05-16T15:39:47;14.88;;;2.63;;
33840;SDS011;20142;28.494;-16.312;2023-05-16T15:44:48;9.63;;;2.80;;
33840;SDS011;20142;28.494;-16.312;2023-05-16T15:49:50;13.85;;;2.78;;
33840;SDS011;20142;28.494;-16.312;2023-05-16T15:54:52;9.75;;;2.10;;
33840;SDS011;20142;28.494;-16.312;2023-05-16T15:59:54;11.70;;;2.47;;
33840;SDS011;20142;28.494;-16.312;2023-05-16T16:04:55;16.73;;;2.60;;
33840;SDS011;20142;28.494;-16.312;2023-05-16T16:09:57;13.20;;;2.45;;
33840;SDS011;20142;28.494;-16.312;2023-05-16T16:14:59;13.20;;;2.58;;
33840;SDS011;20142;28.494;-16.312;2023-05-16T16:20:01;10.60;;;2.63;;
33840;SDS011;20142;28.494;-16.312;2023-05-16T16:25:04;10.05;;;2.33;;
33840;SDS011;20142;28.494;-16.312;2023-05-16T16:30:07;11.18;;;1.95;;
33840;SDS011;20142;28.494;-16.312;2023-05-16T16:35:09;11.52;;;2.30;;
33840;SDS011;20142;28.494;-16.312;2023-05-16T16:40:11;6.53;;;1.92;;
33840;SDS011;20142;28.494;-16.312;2023-05-16T16:45:13;7.47;;;2.20;;
33840;SDS011;20142;28.494;-16.312;2023-05-16T16:50:15;8.75;;;2.00;;
33840;SDS011;20142;28.494;-16.312;2023-05-16T16:55:17;9.20;;;2.08;;
33840;SDS011;20142;28.494;-16.312;2023-05-16T17:00:18;13.20;;;2.40;;
33840;SDS011;20142;28.494;-16.312;2023-05-16T17:05:20;11.02;;;2.35;;
33840;SDS011;20142;28.494;-16.312;2023-05-16T17:10:22;10.48;;;2.33;;
33840;SDS011;20142;28.494;-16.312;2023-05-16T17:15:24;11.70;;;1.98;;
33840;SDS011;20142;28.494;-16.312;2023-05-16T17:20:26;14.18;;;2.90;;
33840;SDS011;20142;28.494;-16.312;2023-05-16T17:25:27;13.52;;;2.10;;
33840;SDS011;20142;28.494;-16.312;2023-05-16T17:30:29;7.85;;;1.90;;
33840;SDS011;20142;28.494;-16.312;2023-05-16T17:35:32;8.95;;;1.90;;
33840;SDS011;20142;28.494;-16.312;2023-05-16T17:40:33;13.93;;;2.70;;
33840;SDS011;20142;28.494;-16.312;2023-05-16T17:45:35;15.80;;;2.95;;
33840;SDS011;20142;28.494;-16.312;2023-05-16T17:50:38;12.40;;;2.35;;
33840;SDS011;20142;28.494;-16.312;2023-05-16T17:55:40;16.00;;;3.00;;
33840;SDS011;20142;28.494;-16.312;2023-05-16T18:00:42;14.52;;;2.15;;
33840;SDS011;20142;28.494;-16.312;2023-05-16T18:05:46;16.88;;;4.10;;
33840;SDS011;20142;28.494;-16.312;2023-05-16T18:10:49;15.48;;;2.60;;
33840;SDS011;20142;28.494;-16.312;2023-05-16T18:15:50;15.77;;;3.33;;
33840;SDS011;20142;28.494;-16.312;2023-05-16T18:20:52;15.70;;;2.60;;
33840;SDS011;20142;28.494;-16.312;2023-05-16T18:25:54;11.57;;;2.70;;
33840;SDS011;20142;28.494;-16.312;2023-05-16T18:30:55;12.52;;;2.92;;
33840;SDS011;20142;28.494;-16.312;2023-05-16T18:35:57;17.77;;;2.90;;
33840;SDS011;20142;28.494;-16.312;2023-05-16T18:40:59;16.60;;;2.83;;
33840;SDS011;20142;28.494;-16.312;2023-05-16T18:46:01;16.63;;;2.88;;
33840;SDS011;20142;28.494;-16.312;2023-05-16T18:51:03;15.35;;;3.40;;
33840;SDS011;20142;28.494;-16.312;2023-05-16T18:56:05;21.55;;;3.75;;
33840;SDS011;20142;28.494;-16.312;2023-05-16T19:01:07;20.75;;;3.50;;
33840;SDS011;20142;28.494;-16.312;2023-05-16T19:06:09;16.33;;;3.60;;
33840;SDS011;20142;28.494;-16.312;2023-05-16T19:11:11;17.80;;;3.22;;
33840;SDS011;20142;28.494;-16.312;2023-05-16T19:16:12;18.92;;;4.03;;
33840;SDS011;20142;28.494;-16.312;2023-05-16T19:21:15;22.88;;;3.58;;
33840;SDS011;20142;28.494;-16.312;2023-05-16T19:26:16;22.88;;;3.45;;
33840;SDS011;20142;28.494;-16.312;2023-05-16T19:31:18;14.80;;;2.97;;
33840;SDS011;20142;28.494;-16.312;2023-05-16T19:36:20;17.75;;;3.38;;
33840;SDS011;20142;28.494;-16.312;2023-05-16T19:41:22;22.02;;;3.25;;
33840;SDS011;20142;28.494;-16.312;2023-05-16T19:46:24;23.70;;;4.28;;
33840;SDS011;20142;28.494;-16.312;2023-05-16T19:51:26;18.60;;;3.28;;
33840;SDS011;20142;28.494;-16.312;2023-05-16T19:56:27;17.02;;;2.67;;
33840;SDS011;20142;28.494;-16.312;2023-05-16T20:01:29;18.17;;;2.90;;
33840;SDS011;20142;28.494;-16.312;2023-05-16T20:06:31;16.00;;;2.80;;
33840;SDS011;20142;28.494;-16.312;2023-05-16T20:11:33;18.90;;;3.10;;
33840;SDS011;20142;28.494;-16.312;2023-05-16T20:16:35;14.40;;;2.70;;
33840;SDS011;20142;28.494;-16.312;2023-05-16T20:21:36;14.13;;;2.38;;
33840;SDS011;20142;28.494;-16.312;2023-05-16T20:26:38;11.35;;;1.92;;
33840;SDS011;20142;28.494;-16.312;2023-05-16T20:31:40;20.45;;;3.17;;
33840;SDS011;20142;28.494;-16.312;2023-05-16T20:36:43;20.83;;;3.08;;
33840;SDS011;20142;28.494;-16.312;2023-05-16T20:41:45;17.58;;;3.15;;
33840;SDS011;20142;28.494;-16.312;2023-05-16T20:46:46;18.17;;;3.38;;
33840;SDS011;20142;28.494;-16.312;2023-05-16T20:51:48;16.80;;;3.30;;
33840;SDS011;20142;28.494;-16.312;2023-05-16T20:56:50;10.93;;;2.83;;
33840;SDS011;20142;28.494;-16.312;2023-05-16T21:01:51;15.85;;;2.35;;
33840;SDS011;20142;28.494;-16.312;2023-05-16T21:06:53;15.93;;;3.10;;
33840;SDS011;20142;28.494;-16.312;2023-05-16T21:11:55;16.50;;;3.25;;
33840;SDS011;20142;28.494;-16.312;2023-05-16T21:16:58;17.13;;;3.35;;
33840;SDS011;20142;28.494;-16.312;2023-05-16T21:22:00;23.08;;;3.47;;
33840;SDS011;20142;28.494;-16.312;2023-05-16T21:27:03;22.10;;;3.40;;
33840;SDS011;20142;28.494;-16.312;2023-05-16T21:32:05;16.67;;;3.03;;
33840;SDS011;20142;28.494;-16.312;2023-05-16T21:37:08;22.15;;;3.63;;
33840;SDS011;20142;28.494;-16.312;2023-05-16T21:42:11;22.38;;;3.05;;
33840;SDS011;20142;28.494;-16.312;2023-05-16T21:47:13;19.58;;;3.70;;
33840;SDS011;20142;28.494;-16.312;2023-05-16T21:52:14;20.88;;;3.25;;
33840;SDS011;20142;28.494;-16.312;2023-05-16T21:57:16;20.67;;;3.38;;
33840;SDS011;20142;28.494;-16.312;2023-05-16T22:02:19;11.68;;;2.83;;
33840;SDS011;20142;28.494;-16.312;2023-05-16T22:07:22;19.83;;;3.10;;
33840;SDS011;20142;28.494;-16.312;2023-05-16T22:12:28;27.40;;;3.70;;
33840;SDS011;20142;28.494;-16.312;2023-05-16T22:17:30;16.77;;;3.60;;
33840;SDS011;20142;28.494;-16.312;2023-05-16T22:22:31;22.08;;;3.78;;
33840;SDS011;20142;28.494;-16.312;2023-05-16T22:27:33;22.73;;;3.95;;
33840;SDS011;20142;28.494;-16.312;2023-05-16T22:32:35;12.98;;;3.00;;
33840;SDS011;20142;28.494;-16.312;2023-05-16T22:37:37;13.68;;;3.33;;
33840;SDS011;20142;28.494;-16.312;2023-05-16T22:42:38;9.27;;;2.60;;
33840;SDS011;20142;28.494;-16.312;2023-05-16T22:47:40;20.02;;;3.28;;
33840;SDS011;20142;28.494;-16.312;2023-05-16T22:52:42;13.13;;;3.30;;
33840;SDS011;20142;28.494;-16.312;2023-05-16T22:57:44;20.50;;;3.17;;
